KWLD/WLD METAR and TAF weather

Enter ICAO airport designator
Station Type Date Time Source
KWLD METAR 2019/10/15 03:54 UTC NOAA

KWLD 150354Z AUTO 17012KT 10SM CLR 17/15 A2988 RMK AO2 SLP111 T01720150


Station Type Date Time Source
KWLD Decoded METAR 2019/10/15 03:54 UTC NOAA

STROTHER FIELD, KS, United States (KWLD) 37-10N 97-02W 350M
Oct 14, 2019 - 11:54 PM EDT / 2019.10.15 0354 UTC
Wind: from the S (170 degrees) at 14 MPH (12 KT):0
Visibility: 10 mile(s):0
Sky conditions: clear
Temperature: 63.0 F (17.2 C)
Dew Point: 59.0 F (15.0 C)
Relative Humidity: 86%
Pressure (altimeter): 29.88 in. Hg (1011 hPa)
ob: KWLD 150354Z AUTO 17012KT 10SM CLR 17/15 A2988 RMK AO2 SLP111 T01720150
cycle: 4

Station Type Date Time Source
KWLD TAF UTC NOAA

Error!

Example: see airport list